createdAt,value
2022-11-08T00:00:44.928Z,2.80
2022-11-08T00:03:13.621Z,2.60
2022-11-08T00:05:59.789Z,2.60
2022-11-08T00:08:45.779Z,2.50
2022-11-08T00:11:33.145Z,2.50
2022-11-08T00:14:01.581Z,2.50
2022-11-08T00:16:30.828Z,2.50
2022-11-08T00:18:59.794Z,2.50
2022-11-08T00:21:28.315Z,2.40
2022-11-08T00:23:56.754Z,2.50
2022-11-08T00:26:26.634Z,2.60
2022-11-08T00:28:55.768Z,2.60
2022-11-08T00:31:24.221Z,2.60
2022-11-08T00:33:52.677Z,2.60
2022-11-08T00:36:21.165Z,2.50
2022-11-08T00:38:49.865Z,2.50
2022-11-08T00:41:18.529Z,2.60
2022-11-08T00:43:48.543Z,2.50
2022-11-08T00:46:17.259Z,2.50
2022-11-08T00:48:45.732Z,2.40
2022-11-08T00:51:14.278Z,2.40
2022-11-08T00:53:42.757Z,2.40
2022-11-08T00:56:13.997Z,2.30
2022-11-08T00:58:44.099Z,2.30
2022-11-08T01:01:17.021Z,2.20
2022-11-08T01:03:46.860Z,2.10
2022-11-08T01:06:17.905Z,2.00
2022-11-08T01:08:46.952Z,2.00
2022-11-08T01:11:19.152Z,1.90
2022-11-08T01:13:47.826Z,1.90
2022-11-08T01:16:22.041Z,1.80
2022-11-08T01:18:53.323Z,1.80
2022-11-08T01:21:22.529Z,1.90
2022-11-08T01:23:52.494Z,1.70
2022-11-08T01:26:24.181Z,1.70
2022-11-08T01:28:53.240Z,1.60
2022-11-08T01:31:26.886Z,1.60
2022-11-08T01:33:56.482Z,1.70
2022-11-08T01:36:27.374Z,1.60
2022-11-08T01:38:57.579Z,1.70
2022-11-08T01:41:28.418Z,1.80
2022-11-08T01:43:58.728Z,1.80
2022-11-08T01:46:37.400Z,1.90
2022-11-08T01:49:44.579Z,1.80
2022-11-08T01:52:24.013Z,1.60
2022-11-08T01:55:02.678Z,1.60
2022-11-08T01:57:37.689Z,1.60
2022-11-08T02:00:12.670Z,1.60
2022-11-08T02:02:45.486Z,1.50
2022-11-08T02:05:28.005Z,1.60
2022-11-08T02:08:03.544Z,1.60
2022-11-08T02:10:37.348Z,1.70
2022-11-08T02:13:13.326Z,1.70
2022-11-08T02:15:44.203Z,1.60
2022-11-08T02:18:17.781Z,1.60
2022-11-08T02:21:01.957Z,1.60
2022-11-08T02:23:43.633Z,1.50
2022-11-08T02:26:12.930Z,1.50
2022-11-08T02:28:41.683Z,1.50
2022-11-08T02:31:10.851Z,1.50
2022-11-08T02:33:40.485Z,1.50
2022-11-08T02:36:11.383Z,1.50
2022-11-08T02:38:48.023Z,1.40
2022-11-08T02:41:16.520Z,1.40
2022-11-08T02:43:45.037Z,1.40
2022-11-08T02:46:13.798Z,1.40
2022-11-08T02:48:42.518Z,1.40
2022-11-08T02:51:11.248Z,1.10
2022-11-08T02:53:39.737Z,1.10
2022-11-08T02:56:09.886Z,1.10
2022-11-08T02:58:38.543Z,1.00
2022-11-08T03:01:07.507Z,1.00
2022-11-08T03:03:36.263Z,1.00
2022-11-08T03:06:05.133Z,0.80
2022-11-08T03:08:33.828Z,0.90
2022-11-08T03:11:02.392Z,0.90
2022-11-08T03:13:32.282Z,0.80
2022-11-08T03:16:04.929Z,0.90
2022-11-08T03:18:33.527Z,0.80
2022-11-08T03:21:02.751Z,0.80
2022-11-08T03:23:31.510Z,0.90
2022-11-08T03:26:03.418Z,0.80
2022-11-08T03:28:34.538Z,0.80
2022-11-08T03:31:03.286Z,0.80
2022-11-08T03:33:31.851Z,0.80
2022-11-08T03:36:00.568Z,0.70
2022-11-08T03:38:29.517Z,0.60
2022-11-08T03:40:58.063Z,0.70
2022-11-08T03:43:28.060Z,0.70
2022-11-08T03:45:58.160Z,0.70
2022-11-08T03:48:26.695Z,0.70
2022-11-08T03:50:55.148Z,0.60
2022-11-08T03:53:23.653Z,0.70
2022-11-08T03:55:52.340Z,0.70
2022-11-08T03:58:21.391Z,0.60
2022-11-08T04:00:50.042Z,0.60
2022-11-08T04:03:20.158Z,0.60
2022-11-08T04:05:48.631Z,0.60
2022-11-08T04:08:17.568Z,0.50
2022-11-08T04:10:46.252Z,0.50
2022-11-08T04:13:31.947Z,0.50
2022-11-08T04:16:00.724Z,0.40
2022-11-08T04:18:48.748Z,0.40
2022-11-08T04:21:20.175Z,0.50
2022-11-08T04:23:50.121Z,0.50
2022-11-08T04:26:19.256Z,0.60
2022-11-08T04:28:47.836Z,0.00
2022-11-08T04:31:19.192Z,0.60
2022-11-08T04:33:49.093Z,0.70
2022-11-08T04:36:19.140Z,0.60
2022-11-08T04:38:50.643Z,0.60
2022-11-08T04:41:22.286Z,0.60
2022-11-08T04:43:51.697Z,0.60
2022-11-08T04:46:22.820Z,0.70
2022-11-08T04:48:55.348Z,0.70
2022-11-08T04:51:27.776Z,0.70
2022-11-08T04:53:57.798Z,0.60
2022-11-08T04:56:28.619Z,0.60
2022-11-08T04:58:59.423Z,0.50
2022-11-08T05:01:32.126Z,0.50
2022-11-08T05:04:02.094Z,0.50
2022-11-08T05:06:33.374Z,0.40
2022-11-08T05:09:02.103Z,0.40
2022-11-08T05:11:31.805Z,0.40
2022-11-08T05:14:00.608Z,0.40
2022-11-08T05:16:33.020Z,0.40
2022-11-08T05:19:03.533Z,0.40
2022-11-08T05:21:49.854Z,0.40
2022-11-08T05:24:19.666Z,0.40
2022-11-08T05:26:50.517Z,0.40
2022-11-08T05:29:19.469Z,0.40
2022-11-08T05:31:48.183Z,0.40
2022-11-08T05:34:18.272Z,0.30
2022-11-08T05:36:46.987Z,0.20
2022-11-08T05:39:15.667Z,0.20
2022-11-08T05:41:44.155Z,0.40
2022-11-08T05:44:12.678Z,0.40
2022-11-08T05:46:41.388Z,0.40
2022-11-08T05:49:09.972Z,0.30
2022-11-08T05:51:40.081Z,0.30
2022-11-08T05:54:09.455Z,0.30
2022-11-08T05:56:37.932Z,0.30
2022-11-08T05:59:06.726Z,0.40
2022-11-08T06:01:36.060Z,0.30
2022-11-08T06:04:04.695Z,0.20
2022-11-08T06:06:33.175Z,0.20
2022-11-08T06:09:03.249Z,0.20
2022-11-08T06:11:31.727Z,0.30
2022-11-08T06:14:00.499Z,0.30
2022-11-08T06:16:28.993Z,0.40
2022-11-08T06:18:57.480Z,0.40
2022-11-08T06:21:27.521Z,0.40
2022-11-08T06:23:56.628Z,0.40
2022-11-08T06:26:26.498Z,0.30
2022-11-08T06:28:55.014Z,0.30
2022-11-08T06:31:24.509Z,0.40
2022-11-08T06:33:53.313Z,0.40
2022-11-08T06:36:21.872Z,0.40
2022-11-08T06:38:55.882Z,0.40
2022-11-08T06:41:30.026Z,0.40
2022-11-08T06:43:58.743Z,0.40
2022-11-08T06:46:27.964Z,0.40
2022-11-08T06:48:56.667Z,0.40
2022-11-08T06:51:25.142Z,0.50
2022-11-08T06:53:53.850Z,0.50
2022-11-08T06:56:22.326Z,0.50
2022-11-08T06:58:52.775Z,0.50
2022-11-08T07:01:21.385Z,0.50
2022-11-08T07:03:49.894Z,0.50
2022-11-08T07:06:18.657Z,0.60
2022-11-08T07:08:47.110Z,0.70
2022-11-08T07:11:15.970Z,0.80
2022-11-08T07:13:44.490Z,0.80
2022-11-08T07:16:15.630Z,0.90
2022-11-08T07:18:44.162Z,0.90
2022-11-08T07:21:12.919Z,1.00
2022-11-08T07:23:41.640Z,1.00
2022-11-08T07:26:11.260Z,1.10
2022-11-08T07:28:39.763Z,1.10
2022-11-08T07:31:09.463Z,1.20
2022-11-08T07:33:39.736Z,1.30
2022-11-08T07:36:08.880Z,1.40
2022-11-08T07:38:37.574Z,1.50
2022-11-08T07:41:06.304Z,1.50
2022-11-08T07:43:34.779Z,1.60
2022-11-08T07:46:04.286Z,1.70
2022-11-08T07:48:32.909Z,1.70
2022-11-08T07:51:02.836Z,1.80
2022-11-08T07:56:21.896Z,1.90
2022-11-08T07:58:50.354Z,1.90
2022-11-08T08:01:19.040Z,1.90
2022-11-08T08:03:47.529Z,1.90
2022-11-08T08:06:17.838Z,1.90
2022-11-08T08:08:46.345Z,2.10
2022-11-08T08:11:15.277Z,2.00
2022-11-08T08:13:43.861Z,2.10
2022-11-08T08:16:12.350Z,2.10
2022-11-08T08:18:41.091Z,2.20
2022-11-08T08:21:09.585Z,2.30
2022-11-08T08:23:39.676Z,2.30
2022-11-08T08:26:08.378Z,2.40
2022-11-08T08:28:36.891Z,2.50
2022-11-08T08:31:08.144Z,2.50
2022-11-08T08:33:37.810Z,2.50
2022-11-08T08:36:07.506Z,2.50
2022-11-08T08:38:41.418Z,2.60
2022-11-08T08:41:14.452Z,2.60
2022-11-08T08:43:42.941Z,2.70
2022-11-08T08:46:11.416Z,2.80
2022-11-08T08:48:39.910Z,2.80
2022-11-08T08:51:08.733Z,2.90
2022-11-08T08:53:37.300Z,3.10
2022-11-08T08:56:06.933Z,3.20
2022-11-08T08:58:36.858Z,3.20
2022-11-08T09:03:58.357Z,3.40
2022-11-08T09:06:27.160Z,3.50
2022-11-08T09:08:55.622Z,3.60
2022-11-08T09:11:24.303Z,3.60
2022-11-08T09:13:54.150Z,3.70
2022-11-08T09:16:22.693Z,3.80
2022-11-08T09:18:51.273Z,3.80
2022-11-08T09:21:19.907Z,3.90
2022-11-08T09:23:48.587Z,4.00
2022-11-08T09:26:17.100Z,4.10
2022-11-08T09:28:45.861Z,4.10
2022-11-08T09:31:15.714Z,4.20
2022-11-08T09:33:44.285Z,4.40
2022-11-08T09:36:15.152Z,4.40
2022-11-08T09:38:43.700Z,4.50
2022-11-08T09:41:37.902Z,4.50
2022-11-08T09:44:22.561Z,4.60
2022-11-08T09:46:56.510Z,4.60
2022-11-08T09:49:33.249Z,4.70
2022-11-08T09:52:04.778Z,4.80
2022-11-08T09:54:42.539Z,4.90
2022-11-08T09:57:22.621Z,5.10
2022-11-08T09:59:59.081Z,5.40
2022-11-08T10:02:29.681Z,5.40
2022-11-08T10:05:02.930Z,5.60
2022-11-08T10:07:41.771Z,5.70
2022-11-08T10:10:46.795Z,6.10
2022-11-08T10:13:27.187Z,6.20
2022-11-08T10:16:08.013Z,6.30
2022-11-08T10:19:00.775Z,6.40
2022-11-08T10:21:59.314Z,6.60
2022-11-08T10:24:36.584Z,6.80
2022-11-08T10:27:15.689Z,7.00
2022-11-08T10:29:47.365Z,7.10
2022-11-08T10:32:21.938Z,7.20
2022-11-08T10:35:03.855Z,7.50
2022-11-08T10:37:34.853Z,7.70
2022-11-08T10:40:18.576Z,8.00
2022-11-08T10:42:52.797Z,8.20
2022-11-08T10:45:21.544Z,8.60
2022-11-08T10:47:50.180Z,8.90
2022-11-08T10:50:31.613Z,9.00
2022-11-08T10:53:03.235Z,9.20
2022-11-08T10:55:37.116Z,9.40
2022-11-08T10:58:06.991Z,9.60
2022-11-08T11:00:36.043Z,9.70
2022-11-08T11:03:29.021Z,9.90
2022-11-08T11:06:02.280Z,10.00
2022-11-08T11:08:30.888Z,10.20
2022-11-08T11:11:25.848Z,10.60
2022-11-08T11:14:19.488Z,11.10
2022-11-08T11:16:58.004Z,11.60
2022-11-08T11:19:28.554Z,11.80
2022-11-08T11:22:06.094Z,12.10
2022-11-08T11:24:37.304Z,12.20
2022-11-08T11:27:09.998Z,12.40
2022-11-08T11:29:40.881Z,12.70
2022-11-08T11:32:34.447Z,12.90
2022-11-08T11:35:06.423Z,12.90
2022-11-08T11:37:44.705Z,13.00
2022-11-08T11:40:24.686Z,13.10
2022-11-08T11:43:06.553Z,13.10
2022-11-08T11:45:45.911Z,13.00
2022-11-08T11:48:20.513Z,13.20
2022-11-08T11:50:51.067Z,13.20
2022-11-08T11:53:25.584Z,13.10
2022-11-08T11:56:22.606Z,13.00
2022-11-08T11:59:35.640Z,13.00
2022-11-08T12:02:58.296Z,13.00
2022-11-08T12:06:00.871Z,12.70
2022-11-08T12:08:47.700Z,12.70
2022-11-08T12:11:38.454Z,12.70
2022-11-08T12:14:30.570Z,12.60
2022-11-08T12:17:17.819Z,12.50
2022-11-08T12:20:02.742Z,12.50
2022-11-08T12:22:51.736Z,12.50
2022-11-08T12:25:27.855Z,12.40
2022-11-08T12:28:08.936Z,12.30
2022-11-08T12:30:51.109Z,12.20
2022-11-08T12:33:35.738Z,12.10
2022-11-08T12:36:18.568Z,12.00
2022-11-08T12:39:05.776Z,12.00
2022-11-08T12:41:50.052Z,11.90
2022-11-08T12:44:45.120Z,11.90
2022-11-08T12:47:29.011Z,11.90
2022-11-08T12:50:16.895Z,11.90
2022-11-08T12:53:22.800Z,11.90
2022-11-08T12:55:57.421Z,12.10
2022-11-08T12:58:40.315Z,12.20
2022-11-08T13:01:14.243Z,12.30
2022-11-08T13:04:07.942Z,12.40
2022-11-08T13:06:47.512Z,12.40
2022-11-08T13:09:32.108Z,12.50
2022-11-08T13:12:14.306Z,12.50
2022-11-08T13:14:44.699Z,12.50
2022-11-08T13:17:23.059Z,12.60
2022-11-08T13:20:05.408Z,12.70
2022-11-08T13:23:00.592Z,12.70
2022-11-08T13:25:45.236Z,12.80
2022-11-08T13:28:41.575Z,12.90
2022-11-08T13:31:40.334Z,12.80
2022-11-08T13:34:51.484Z,12.90
2022-11-08T13:37:57.171Z,12.90
2022-11-08T13:41:04.259Z,12.90
2022-11-08T13:43:34.882Z,12.90
2022-11-08T13:46:47.935Z,13.00
2022-11-08T13:49:24.248Z,13.10
2022-11-08T13:52:45.834Z,13.20
2022-11-08T13:55:48.988Z,13.20
2022-11-08T13:58:37.574Z,13.20
2022-11-08T14:01:08.187Z,13.30
2022-11-08T14:03:57.400Z,13.40
2022-11-08T14:06:37.028Z,13.30
2022-11-08T14:09:21.676Z,13.40
2022-11-08T14:12:02.069Z,13.30
2022-11-08T14:14:48.501Z,13.10
2022-11-08T14:17:45.076Z,13.00
2022-11-08T14:20:31.299Z,12.80
2022-11-08T14:23:13.536Z,12.70
2022-11-08T14:25:44.154Z,12.60
2022-11-08T14:28:26.131Z,12.50
2022-11-08T14:30:55.267Z,12.40
2022-11-08T14:33:26.568Z,12.30
2022-11-08T14:36:00.933Z,12.20
2022-11-08T14:38:31.791Z,12.10
2022-11-08T14:41:03.837Z,12.00
2022-11-08T14:43:42.324Z,11.90
2022-11-08T14:46:17.603Z,11.80
2022-11-08T14:48:54.154Z,11.80
2022-11-08T14:51:25.536Z,11.70
2022-11-08T14:53:56.663Z,11.70
2022-11-08T14:56:27.514Z,11.60
2022-11-08T14:58:57.357Z,11.50
2022-11-08T15:01:29.005Z,11.40
2022-11-08T15:04:03.787Z,11.40
2022-11-08T15:06:37.717Z,11.30
2022-11-08T15:09:08.461Z,11.10
2022-11-08T15:11:41.451Z,11.10
2022-11-08T15:14:19.728Z,11.00
2022-11-08T15:16:51.262Z,11.00
2022-11-08T15:19:29.743Z,11.00
2022-11-08T15:22:01.712Z,10.90
2022-11-08T15:24:37.982Z,10.80
2022-11-08T15:27:17.948Z,10.70
2022-11-08T15:29:54.661Z,10.70
2022-11-08T15:32:24.551Z,10.50
2022-11-08T15:34:56.916Z,10.40
2022-11-08T15:37:36.647Z,10.30
2022-11-08T15:40:18.806Z,10.20
2022-11-08T15:42:50.239Z,10.20
2022-11-08T15:45:26.532Z,10.10
2022-11-08T15:48:11.110Z,10.00
2022-11-08T15:50:39.673Z,10.00
2022-11-08T15:53:10.204Z,9.90
2022-11-08T15:55:44.095Z,9.80
2022-11-08T15:58:18.644Z,9.60
2022-11-08T16:00:49.879Z,9.60
2022-11-08T16:03:18.760Z,9.40
2022-11-08T16:05:47.246Z,9.30
2022-11-08T16:08:20.303Z,9.10
2022-11-08T16:10:53.251Z,9.00
2022-11-08T16:13:28.818Z,8.80
2022-11-08T16:15:57.929Z,8.80
2022-11-08T16:18:27.008Z,8.70
2022-11-08T16:20:56.227Z,8.60
2022-11-08T16:23:26.105Z,8.60
2022-11-08T16:25:57.833Z,8.60
2022-11-08T16:28:34.088Z,8.40
2022-11-08T16:31:03.105Z,8.30
2022-11-08T16:33:34.515Z,8.30
2022-11-08T16:36:07.929Z,8.30
2022-11-08T16:38:39.591Z,8.10
2022-11-08T16:41:08.098Z,8.10
2022-11-08T16:43:36.756Z,8.10
2022-11-08T16:46:07.912Z,7.90
2022-11-08T16:48:39.807Z,7.90
2022-11-08T16:51:18.223Z,7.80
2022-11-08T16:53:49.876Z,7.80
2022-11-08T16:56:19.125Z,7.70
2022-11-08T16:58:48.375Z,7.60
2022-11-08T17:01:23.444Z,7.50
2022-11-08T17:03:51.951Z,7.40
2022-11-08T17:06:20.465Z,7.30
2022-11-08T17:08:51.103Z,7.30
2022-11-08T17:11:23.033Z,7.20
2022-11-08T17:13:52.870Z,7.10
2022-11-08T17:16:21.530Z,7.00
2022-11-08T17:18:52.992Z,7.00
2022-11-08T17:21:43.857Z,7.00
2022-11-08T17:24:17.035Z,7.00
2022-11-08T17:26:49.662Z,7.00
2022-11-08T17:29:18.357Z,7.00
2022-11-08T17:31:47.057Z,6.90
2022-11-08T17:34:15.583Z,6.90
2022-11-08T17:36:44.441Z,6.80
2022-11-08T17:39:15.409Z,6.80
2022-11-08T17:41:43.879Z,6.70
2022-11-08T17:44:12.409Z,6.60
2022-11-08T17:46:40.900Z,6.60
2022-11-08T17:49:10.327Z,6.60
2022-11-08T17:51:39.015Z,6.40
2022-11-08T17:54:07.546Z,6.30
2022-11-08T17:56:37.635Z,6.40
2022-11-08T17:59:06.182Z,6.30
2022-11-08T18:01:35.151Z,6.30
2022-11-08T18:04:04.536Z,6.20
2022-11-08T18:06:33.131Z,6.10
2022-11-08T18:09:01.768Z,6.00
2022-11-08T18:11:30.457Z,6.00
2022-11-08T18:14:00.609Z,6.00
2022-11-08T18:16:30.090Z,6.00
2022-11-08T18:18:59.569Z,6.00
2022-11-08T18:21:28.041Z,6.00
2022-11-08T18:23:59.840Z,6.00
2022-11-08T18:26:28.935Z,6.00
2022-11-08T18:28:59.355Z,6.00
2022-11-08T18:31:29.849Z,6.00
2022-11-08T18:33:58.801Z,6.00
2022-11-08T18:36:31.618Z,6.00
2022-11-08T18:39:01.585Z,5.90
2022-11-08T18:41:33.927Z,5.90
2022-11-08T18:44:06.018Z,6.00
2022-11-08T18:46:41.822Z,6.10
2022-11-08T18:49:12.616Z,6.20
2022-11-08T18:51:41.179Z,6.20
2022-11-08T18:54:09.733Z,6.20
2022-11-08T18:56:38.446Z,6.20
2022-11-08T18:59:09.196Z,6.10
2022-11-08T19:01:37.940Z,6.00
2022-11-08T19:04:06.606Z,5.90
2022-11-08T19:06:35.213Z,5.90
2022-11-08T19:09:04.085Z,5.80
2022-11-08T19:11:32.640Z,5.80
2022-11-08T19:14:02.403Z,5.70
2022-11-08T19:16:32.775Z,5.70
2022-11-08T19:19:01.769Z,5.60
2022-11-08T19:21:30.634Z,5.60
2022-11-08T19:24:00.222Z,5.50
2022-11-08T19:26:30.195Z,5.50
2022-11-08T19:28:59.304Z,5.40
2022-11-08T19:31:28.174Z,5.30
2022-11-08T19:33:58.730Z,5.30
2022-11-08T19:36:29.723Z,5.20
2022-11-08T19:39:00.041Z,5.10
2022-11-08T19:41:30.367Z,5.10
2022-11-08T19:43:59.127Z,5.00
2022-11-08T19:46:30.190Z,5.00
2022-11-08T19:49:03.053Z,5.00
2022-11-08T19:51:35.120Z,5.00
2022-11-08T19:54:06.925Z,5.00
2022-11-08T19:57:03.036Z,5.10
2022-11-08T19:59:25.607Z,5.10
2022-11-08T20:01:54.427Z,5.10
2022-11-08T20:04:24.641Z,5.20
2022-11-08T20:06:53.197Z,5.20
2022-11-08T20:09:25.873Z,5.30
2022-11-08T20:11:56.757Z,5.30
2022-11-08T20:14:25.284Z,5.40
2022-11-08T20:16:54.420Z,5.40
2022-11-08T20:19:24.394Z,5.40
2022-11-08T20:21:56.740Z,5.40
2022-11-08T20:24:25.255Z,5.40
2022-11-08T20:26:55.314Z,5.30
2022-11-08T20:29:24.167Z,5.40
2022-11-08T20:31:53.008Z,5.30
2022-11-08T20:34:23.065Z,5.30
2022-11-08T20:36:51.576Z,5.20
2022-11-08T20:39:20.523Z,5.10
2022-11-08T20:41:49.546Z,4.90
2022-11-08T20:44:20.396Z,4.80
2022-11-08T20:46:48.907Z,4.90
2022-11-08T20:49:17.597Z,4.90
2022-11-08T20:51:47.745Z,5.00
2022-11-08T20:54:16.994Z,4.90
2022-11-08T20:56:45.470Z,4.80
2022-11-08T20:59:14.971Z,4.90
2022-11-08T21:01:43.510Z,4.80
2022-11-08T21:04:12.020Z,4.80
2022-11-08T21:06:40.922Z,4.80
2022-11-08T21:12:01.032Z,4.70
2022-11-08T21:14:29.529Z,4.80
2022-11-08T21:19:48.356Z,4.70
2022-11-08T21:22:16.989Z,4.60
2022-11-08T21:24:49.360Z,4.50
2022-11-08T21:27:18.429Z,4.50
2022-11-08T21:29:47.121Z,4.50
2022-11-08T21:32:15.829Z,4.50
2022-11-08T21:34:46.171Z,4.60
2022-11-08T21:37:15.991Z,4.60
2022-11-08T21:39:44.501Z,4.60
2022-11-08T21:42:14.790Z,4.60
2022-11-08T21:44:43.243Z,4.60
2022-11-08T21:47:12.189Z,4.50
2022-11-08T21:49:40.832Z,4.50
2022-11-08T21:52:10.738Z,4.50
2022-11-08T21:54:40.472Z,4.60
2022-11-08T21:57:09.184Z,4.60
2022-11-08T21:59:39.799Z,4.60
2022-11-08T22:02:09.549Z,4.50
2022-11-08T22:04:38.140Z,4.50
2022-11-08T22:07:06.848Z,4.60
2022-11-08T22:09:35.299Z,4.60
2022-11-08T22:12:04.532Z,4.60
2022-11-08T22:14:33.187Z,4.60
2022-11-08T22:17:03.071Z,4.60
2022-11-08T22:19:31.538Z,4.70
2022-11-08T22:22:00.187Z,4.70
2022-11-08T22:24:28.639Z,4.80
2022-11-08T22:26:57.528Z,4.80
2022-11-08T22:29:26.115Z,4.80
2022-11-08T22:31:55.000Z,4.80
2022-11-08T22:34:25.223Z,4.80
2022-11-08T22:36:53.726Z,4.80
2022-11-08T22:39:24.213Z,4.80
2022-11-08T22:41:56.054Z,4.80
2022-11-08T22:44:24.935Z,4.80
2022-11-08T22:46:53.447Z,4.80
2022-11-08T22:49:21.897Z,4.80
2022-11-08T22:51:51.723Z,4.70
2022-11-08T22:54:20.201Z,4.70
2022-11-08T22:56:49.684Z,4.70
2022-11-08T22:59:18.137Z,4.70
2022-11-08T23:01:46.719Z,4.70
2022-11-08T23:04:15.201Z,4.70
2022-11-08T23:06:43.740Z,4.70
2022-11-08T23:09:13.707Z,4.70
2022-11-08T23:11:59.915Z,4.60
2022-11-08T23:14:45.798Z,4.60
2022-11-08T23:17:14.952Z,4.50
2022-11-08T23:20:00.911Z,4.40
2022-11-08T23:22:46.883Z,4.40
2022-11-08T23:25:17.154Z,4.30
2022-11-08T23:28:03.435Z,4.20
2022-11-08T23:30:49.415Z,4.00
2022-11-08T23:33:18.349Z,4.00
2022-11-08T23:36:00.860Z,4.00
2022-11-08T23:38:29.967Z,3.90
2022-11-08T23:41:18.970Z,4.00
2022-11-08T23:44:04.942Z,3.90
2022-11-08T23:49:23.376Z,3.90
2022-11-08T23:51:52.493Z,3.90
2022-11-08T23:54:22.641Z,3.90
2022-11-08T23:56:53.386Z,3.90
2022-11-08T23:59:22.516Z,4.00
